Saturday, November 18, 2017, 1:17 AM EST
Back to Local

KMMU, Morristown Municipal

Location: Morristown, NJ, United States Lat: 40.8
Local Time: 1:17 AM EST ( 6:17 GMT) Lon: -74.417
Time Zone: US/Eastern Elev: 187 ft

Show me the last for .
Show Decoded

2017-11-18 00:55 METAR KMMU 180555Z AUTO 00000KT 10SM CLR M04/M05 A3005 RMK AO2 =
2017-11-18 00:35 METAR KMMU 180535Z AUTO 00000KT 10SM CLR M04/M05 A3006 RMK AO2 =
2017-11-18 00:15 METAR KMMU 180515Z AUTO 00000KT 10SM CLR M04/M05 A3007 RMK AO2 =
2017-11-17 23:55 METAR KMMU 180455Z AUTO 00000KT 10SM CLR M03/M05 A3008 RMK AO2 =
2017-11-17 23:35 METAR KMMU 180435Z AUTO 00000KT 10SM CLR M02/M05 A3008 RMK AO2 =
2017-11-17 23:15 METAR KMMU 180415Z AUTO 00000KT 10SM CLR M03/M05 A3008 RMK AO2 =
2017-11-17 22:55 METAR KMMU 180355Z AUTO 00000KT 10SM CLR M02/M05 A3008 RMK AO2 =
2017-11-17 22:35 METAR KMMU 180335Z AUTO 00000KT 10SM CLR M02/M05 A3008 RMK AO2 =
2017-11-17 22:15 METAR KMMU 180315Z AUTO 00000KT 10SM CLR M02/M05 A3008 RMK AO2 =
2017-11-17 21:55 METAR KMMU 180255Z AUTO 00000KT 10SM CLR M01/M05 A3010 RMK AO2 =
2017-11-17 21:45 METAR KMMU 180245Z 00000KT 10SM SKC M01/M05 A3010 =
2017-11-17 21:35 METAR KMMU 180235Z AUTO 00000KT 10SM CLR M01/M05 A3010 RMK AO2 =
2017-11-17 20:45 METAR KMMU 180145Z 00000KT 10SM SKC M02/M06 A3011 =
2017-11-17 19:55 METAR KMMU 180055Z 33003KT 10SM SKC 02/M07 A3010 =
2017-11-17 18:45 METAR KMMU 172345Z 00000KT 10SM FEW250 01/M06 A3011 =
2017-11-17 17:55 METAR KMMU 172255Z 00000KT 10SM FEW250 04/M10 A3010 =
2017-11-17 16:59 METAR KMMU 172159Z 35009KT 10SM FEW250 06/M11 A3010 =
2017-11-17 15:45 METAR KMMU 172045Z 34007G12KT 10SM FEW250 08/M10 A3008 =
2017-11-17 14:50 METAR KMMU 171950Z 33016G21KT 10SM FEW250 09/M09 A3008 =
2017-11-17 13:55 METAR KMMU 171855Z 33015G21KT 10SM FEW250 08/M08 A3007 =
2017-11-17 12:45 METAR KMMU 171745Z 30006G21KT 10SM SKC 08/M07 A3008 =
2017-11-17 11:45 METAR KMMU 171645Z 33010G18KT 10SM SKC 07/M06 A3008 =
2017-11-17 11:00 METAR KMMU 171600Z 31005G15KT 10SM FEW050 06/M06 A3010 =
2017-11-17 10:45 METAR KMMU 171545Z 33009G23KT 10SM FEW050 06/M06 A3010 =
2017-11-17 09:45 METAR KMMU 171445Z 33013G20KT 10SM FEW150 05/M04 A3012 =
2017-11-17 08:45 METAR KMMU 171345Z 35010G19KT 10SM SCT037 05/M04 A3010 =
2017-11-17 07:45 METAR KMMU 171245Z 33012G25KT 10SM SCT037 04/M04 A3008 =
2017-11-17 06:45 METAR KMMU 171145Z 35006G19KT 10SM SCT039 03/M04 A3005 =
2017-11-17 05:35 METAR KMMU 171035Z AUTO 33012G19KT 10SM OVC039 04/M03 A3004 RMK AO2 =
2017-11-17 05:15 METAR KMMU 171015Z AUTO 32012G19KT 10SM OVC039 05/M03 A3003 RMK AO2 =
2017-11-17 04:55 METAR KMMU 170955Z AUTO 33008KT 300V010 10SM OVC039 05/M03 A3001 RMK AO2 =
2017-11-17 04:35 METAR KMMU 170935Z AUTO 33007KT 10SM OVC041 05/M03 A3001 RMK AO2 =
2017-11-17 04:15 METAR KMMU 170915Z AUTO 31008G17KT 10SM OVC037 05/M02 A3000 RMK AO2 =
2017-11-17 03:55 METAR KMMU 170855Z AUTO 31005KT 10SM OVC037 05/M02 A2998 RMK AO2 =
2017-11-17 03:35 METAR KMMU 170835Z AUTO 32006KT 10SM OVC041 05/M02 A2998 RMK AO2 =
2017-11-17 03:15 METAR KMMU 170815Z AUTO 32007G18KT 290V350 10SM OVC042 05/M02 A2998 RMK AO2 =
2017-11-17 02:55 METAR KMMU 170755Z AUTO 31011G17KT 10SM SCT036 OVC044 05/M02 A2997 RMK AO2 =
2017-11-17 02:35 METAR KMMU 170735Z AUTO 31009G15KT 290V350 10SM SCT036 BKN043 BKN050 06/M01
                 A2997 RMK AO2 =
2017-11-17 02:15 METAR KMMU 170715Z AUTO 31013G18KT 10SM SCT034 BKN050 05/M01 A2996 RMK AO2 =
2017-11-17 01:55 METAR KMMU 170655Z AUTO 28007KT 10SM SCT034 BKN050 06/M00 A2996 RMK AO2 =
2017-11-17 01:35 METAR KMMU 170635Z AUTO 29008G16KT 10SM SCT034 SCT046 BKN055 06/M00 A2994 RMK
                 AO2 =

Support USWX by starting your Amazon purchase here.